createdAt,value
2022-10-12T00:01:32.666Z,3.50
2022-10-12T00:03:59.740Z,3.65
2022-10-12T00:06:27.261Z,3.97
2022-10-12T00:08:55.002Z,4.03
2022-10-12T00:11:25.215Z,4.70
2022-10-12T00:13:53.066Z,4.95
2022-10-12T00:16:22.501Z,5.13
2022-10-12T00:18:54.375Z,4.95
2022-10-12T00:21:22.076Z,4.90
2022-10-12T00:23:49.170Z,4.63
2022-10-12T00:26:20.125Z,4.85
2022-10-12T00:28:47.092Z,5.43
2022-10-12T00:31:19.836Z,5.00
2022-10-12T00:33:47.726Z,5.28
2022-10-12T00:36:28.149Z,6.57
2022-10-12T00:38:56.445Z,4.72
2022-10-12T00:41:27.312Z,5.55
2022-10-12T00:43:58.274Z,4.50
2022-10-12T00:46:45.064Z,3.97
2022-10-12T00:49:25.163Z,4.35
2022-10-12T00:51:56.514Z,4.88
2022-10-12T00:54:28.911Z,3.92
2022-10-12T00:56:56.732Z,4.10
2022-10-12T00:59:47.570Z,4.47
2022-10-12T01:02:14.929Z,4.15
2022-10-12T01:04:42.518Z,4.22
2022-10-12T01:07:09.459Z,4.55
2022-10-12T01:09:36.509Z,4.45
2022-10-12T01:12:05.512Z,4.50
2022-10-12T01:14:32.448Z,4.18
2022-10-12T01:17:12.935Z,3.88
2022-10-12T01:20:17.145Z,4.03
2022-10-12T01:23:13.005Z,4.38
2022-10-12T01:25:54.968Z,4.53
2022-10-12T01:28:55.973Z,3.53
2022-10-12T01:31:37.992Z,4.10
2022-10-12T01:34:15.596Z,4.00
2022-10-12T01:36:51.766Z,3.35
2022-10-12T01:39:25.034Z,3.83
2022-10-12T01:41:57.132Z,3.80
2022-10-12T01:44:25.868Z,3.70
2022-10-12T01:46:54.882Z,4.72
2022-10-12T01:49:29.253Z,3.90
2022-10-12T01:52:10.792Z,4.57
2022-10-12T01:55:20.163Z,3.20
2022-10-12T01:58:28.241Z,4.15
2022-10-12T02:01:48.584Z,3.55
2022-10-12T02:04:40.499Z,3.70
2022-10-12T02:07:17.018Z,3.30
2022-10-12T02:09:44.313Z,3.53
2022-10-12T02:12:18.884Z,2.88
2022-10-12T02:14:49.926Z,3.75
2022-10-12T02:17:20.319Z,3.65
2022-10-12T02:19:56.320Z,2.88
2022-10-12T02:22:34.376Z,3.05
2022-10-12T02:25:04.805Z,4.28
2022-10-12T02:27:35.050Z,2.60
2022-10-12T02:30:02.939Z,3.20
2022-10-12T02:32:49.230Z,3.83
2022-10-12T02:35:20.764Z,3.33
2022-10-12T02:37:55.007Z,2.95
2022-10-12T02:40:33.622Z,3.45
2022-10-12T02:43:13.181Z,2.95
2022-10-12T02:45:43.800Z,3.13
2022-10-12T02:48:15.182Z,2.78
2022-10-12T02:50:42.658Z,2.80
2022-10-12T02:53:10.238Z,2.67
2022-10-12T02:55:59.318Z,3.58
2022-10-12T02:58:26.104Z,3.20
2022-10-12T03:00:53.064Z,2.83
2022-10-12T03:03:19.907Z,2.88
2022-10-12T03:05:46.758Z,3.05
2022-10-12T03:08:13.672Z,3.13
2022-10-12T03:10:40.554Z,2.97
2022-10-12T03:13:07.511Z,3.03
2022-10-12T03:15:34.352Z,2.70
2022-10-12T03:18:01.167Z,2.97
2022-10-12T03:20:28.005Z,3.28
2022-10-12T03:22:54.781Z,3.28
2022-10-12T03:25:21.635Z,3.25
2022-10-12T03:27:48.485Z,3.42
2022-10-12T03:30:15.791Z,2.92
2022-10-12T03:32:42.600Z,4.00
2022-10-12T03:35:10.107Z,2.95
2022-10-12T03:37:37.111Z,2.45
2022-10-12T03:40:04.547Z,3.05
2022-10-12T03:42:31.338Z,2.15
2022-10-12T03:44:58.196Z,3.20
2022-10-12T03:47:25.029Z,2.95
2022-10-12T03:49:51.845Z,2.72
2022-10-12T03:52:20.599Z,2.95
2022-10-12T03:54:47.412Z,2.83
2022-10-12T03:57:14.182Z,2.88
2022-10-12T03:59:40.986Z,2.92
2022-10-12T04:02:08.134Z,2.83
2022-10-12T04:04:35.361Z,2.45
2022-10-12T04:07:02.125Z,2.80
2022-10-12T04:09:28.904Z,2.78
2022-10-12T04:11:55.710Z,2.80
2022-10-12T04:14:22.499Z,3.03
2022-10-12T04:16:49.276Z,2.97
2022-10-12T04:19:16.138Z,2.30
2022-10-12T04:21:42.867Z,2.97
2022-10-12T04:24:09.622Z,2.95
2022-10-12T04:26:36.418Z,2.85
2022-10-12T04:29:03.448Z,3.78
2022-10-12T04:31:30.759Z,4.38
2022-10-12T04:33:57.858Z,6.93
2022-10-12T04:36:25.384Z,8.63
2022-10-12T04:38:55.956Z,9.27
2022-10-12T04:41:27.132Z,8.80
2022-10-12T04:43:54.345Z,8.68
2022-10-12T04:46:21.557Z,8.60
2022-10-12T04:48:48.383Z,7.30
2022-10-12T04:51:15.338Z,7.93
2022-10-12T04:53:42.209Z,6.60
2022-10-12T04:56:09.210Z,6.40
2022-10-12T04:58:36.227Z,5.57
2022-10-12T05:01:03.118Z,6.70
2022-10-12T05:03:30.045Z,5.68
2022-10-12T05:05:56.785Z,5.20
2022-10-12T05:08:23.672Z,4.72
2022-10-12T05:10:50.480Z,5.03
2022-10-12T05:13:17.277Z,5.15
2022-10-12T05:15:44.928Z,3.83
2022-10-12T05:18:11.796Z,4.70
2022-10-12T05:20:38.734Z,4.35
2022-10-12T05:23:05.613Z,4.32
2022-10-12T05:25:32.744Z,3.60
2022-10-12T05:27:59.530Z,4.70
2022-10-12T05:30:26.381Z,4.13
2022-10-12T05:32:53.913Z,3.22
2022-10-12T05:35:20.706Z,3.85
2022-10-12T05:37:47.635Z,3.70
2022-10-12T05:40:14.476Z,3.92
2022-10-12T05:42:41.617Z,3.55
2022-10-12T05:45:12.208Z,3.72
2022-10-12T05:47:40.236Z,3.45
2022-10-12T05:50:07.917Z,3.30
2022-10-12T05:52:34.814Z,3.33
2022-10-12T05:55:01.615Z,3.22
2022-10-12T05:57:28.385Z,4.07
2022-10-12T05:59:55.167Z,2.95
2022-10-12T06:02:22.191Z,2.90
2022-10-12T06:04:49.046Z,3.20
2022-10-12T06:07:15.904Z,3.50
2022-10-12T06:09:44.699Z,3.75
2022-10-12T06:12:11.590Z,3.92
2022-10-12T06:14:38.342Z,3.78
2022-10-12T06:17:05.271Z,3.90
2022-10-12T06:19:32.204Z,4.15
2022-10-12T06:21:59.181Z,3.90
2022-10-12T06:24:25.973Z,3.03
2022-10-12T06:26:52.865Z,3.38
2022-10-12T06:29:19.982Z,3.55
2022-10-12T06:31:51.393Z,3.45
2022-10-12T06:34:19.065Z,3.63
2022-10-12T06:36:45.828Z,3.70
2022-10-12T06:39:12.955Z,3.38
2022-10-12T06:41:39.817Z,3.50
2022-10-12T06:44:07.031Z,3.72
2022-10-12T06:46:33.865Z,3.25
2022-10-12T06:49:00.652Z,2.85
2022-10-12T06:51:27.528Z,3.63
2022-10-12T06:53:57.448Z,4.30
2022-10-12T06:56:24.276Z,4.82
2022-10-12T06:58:55.788Z,3.55
2022-10-12T07:01:22.742Z,3.47
2022-10-12T07:03:49.628Z,3.50
2022-10-12T07:06:16.887Z,4.43
2022-10-12T07:08:44.093Z,3.15
2022-10-12T07:11:12.950Z,3.38
2022-10-12T07:13:39.979Z,3.47
2022-10-12T07:16:07.520Z,3.45
2022-10-12T07:18:34.597Z,3.30
2022-10-12T07:21:02.911Z,3.67
2022-10-12T07:23:34.458Z,3.22
2022-10-12T07:26:01.617Z,3.25
2022-10-12T07:28:28.512Z,3.25
2022-10-12T07:31:00.149Z,4.35
2022-10-12T07:33:27.177Z,2.72
2022-10-12T07:36:13.148Z,2.30
2022-10-12T07:38:45.445Z,2.35
2022-10-12T07:41:14.595Z,3.15
2022-10-12T07:43:41.721Z,3.65
2022-10-12T07:46:08.674Z,2.50
2022-10-12T07:48:36.046Z,2.83
2022-10-12T07:51:08.388Z,2.88
2022-10-12T07:53:36.356Z,2.63
2022-10-12T07:56:05.667Z,3.88
2022-10-12T07:58:32.876Z,4.22
2022-10-12T08:01:07.950Z,3.15
2022-10-12T08:03:35.451Z,2.60
2022-10-12T08:06:10.594Z,3.00
2022-10-12T08:08:37.645Z,2.80
2022-10-12T08:11:05.545Z,1.92
2022-10-12T08:13:32.805Z,2.95
2022-10-12T08:16:00.758Z,2.65
2022-10-12T08:18:27.645Z,2.72
2022-10-12T08:20:54.464Z,2.40
2022-10-12T08:23:21.252Z,3.92
2022-10-12T08:25:56.296Z,2.42
2022-10-12T08:28:24.606Z,2.63
2022-10-12T08:30:52.031Z,1.88
2022-10-12T08:33:19.541Z,2.97
2022-10-12T08:35:50.607Z,2.13
2022-10-12T08:38:17.599Z,2.58
2022-10-12T08:40:44.472Z,2.08
2022-10-12T08:43:25.813Z,2.45
2022-10-12T08:45:58.460Z,1.80
2022-10-12T08:48:27.512Z,2.83
2022-10-12T08:51:01.796Z,2.78
2022-10-12T08:53:57.642Z,2.70
2022-10-12T08:56:24.893Z,2.20
2022-10-12T08:58:53.000Z,1.73
2022-10-12T09:01:40.182Z,2.55
2022-10-12T09:04:41.039Z,1.85
2022-10-12T09:07:32.199Z,1.90
2022-10-12T09:09:58.963Z,1.83
2022-10-12T09:12:59.013Z,1.83
2022-10-12T09:15:33.451Z,1.70
2022-10-12T09:18:02.644Z,2.40
2022-10-12T09:20:41.027Z,1.80
2022-10-12T09:23:26.625Z,1.63
2022-10-12T09:25:57.571Z,1.77
2022-10-12T09:28:50.671Z,2.13
2022-10-12T09:31:56.566Z,2.13
2022-10-12T09:34:24.682Z,2.03
2022-10-12T09:36:51.672Z,1.55
2022-10-12T09:39:31.864Z,2.17
2022-10-12T09:41:58.661Z,2.95
2022-10-12T09:44:46.762Z,2.45
2022-10-12T09:47:28.850Z,1.95
2022-10-12T09:50:09.055Z,1.80
2022-10-12T09:52:35.932Z,2.40
2022-10-12T09:55:07.932Z,2.33
2022-10-12T09:57:39.454Z,2.20
2022-10-12T10:00:30.383Z,2.22
2022-10-12T10:02:58.359Z,1.83
2022-10-12T10:05:31.589Z,2.38
2022-10-12T10:08:19.676Z,1.88
2022-10-12T10:10:50.885Z,3.25
2022-10-12T10:13:18.111Z,2.17
2022-10-12T10:15:52.283Z,2.15
2022-10-12T10:18:40.667Z,1.95
2022-10-12T10:21:13.196Z,1.73
2022-10-12T10:23:58.888Z,1.20
2022-10-12T10:26:28.496Z,1.65
2022-10-12T10:29:30.738Z,2.13
2022-10-12T10:32:30.045Z,1.00
2022-10-12T10:35:15.112Z,1.95
2022-10-12T10:38:01.464Z,2.30
2022-10-12T10:40:55.480Z,1.73
2022-10-12T10:43:40.784Z,1.70
2022-10-12T10:46:30.515Z,1.63
2022-10-12T10:49:06.440Z,1.17
2022-10-12T10:51:52.355Z,1.48
2022-10-12T10:54:22.305Z,1.50
2022-10-12T10:56:52.599Z,1.48
2022-10-12T10:59:42.316Z,1.13
2022-10-12T11:02:19.604Z,1.40
2022-10-12T11:05:02.232Z,1.25
2022-10-12T11:07:39.571Z,1.13
2022-10-12T11:10:28.148Z,0.80
2022-10-12T11:13:03.394Z,1.10
2022-10-12T11:15:44.285Z,0.95
2022-10-12T11:18:26.624Z,1.15
2022-10-12T11:21:04.285Z,0.70
2022-10-12T11:23:49.149Z,0.88
2022-10-12T11:26:20.771Z,0.88
2022-10-12T11:28:48.036Z,1.23
2022-10-12T11:31:26.343Z,0.98
2022-10-12T11:33:55.111Z,1.08
2022-10-12T11:36:24.682Z,0.80
2022-10-12T11:39:06.648Z,0.80
2022-10-12T11:42:20.987Z,1.15
2022-10-12T11:44:48.926Z,0.73
2022-10-12T11:47:19.659Z,1.15
2022-10-12T11:50:05.054Z,1.15
2022-10-12T11:52:39.808Z,0.77
2022-10-12T11:55:29.787Z,0.80
2022-10-12T11:58:00.879Z,1.20
2022-10-12T12:00:49.424Z,1.05
2022-10-12T12:03:39.861Z,1.10
2022-10-12T12:06:28.728Z,1.48
2022-10-12T12:09:05.645Z,1.38
2022-10-12T12:11:34.344Z,1.15
2022-10-12T12:14:25.955Z,0.95
2022-10-12T12:17:32.601Z,1.02
2022-10-12T12:20:02.067Z,1.25
2022-10-12T12:22:37.899Z,1.10
2022-10-12T12:25:08.469Z,0.98
2022-10-12T12:27:51.504Z,1.90
2022-10-12T12:30:18.272Z,1.10
2022-10-12T12:32:55.879Z,1.08
2022-10-12T12:35:30.757Z,1.30
2022-10-12T12:38:12.784Z,1.00
2022-10-12T12:40:41.294Z,1.27
2022-10-12T12:43:29.844Z,1.13
2022-10-12T12:46:08.045Z,0.80
2022-10-12T12:48:44.528Z,1.10
2022-10-12T12:51:14.593Z,0.98
2022-10-12T12:53:49.348Z,1.45
2022-10-12T12:56:40.180Z,1.08
2022-10-12T12:59:28.517Z,1.15
2022-10-12T13:01:58.151Z,1.10
2022-10-12T13:04:40.212Z,0.77
2022-10-12T13:07:09.736Z,0.90
2022-10-12T13:09:49.048Z,1.30
2022-10-12T13:12:32.236Z,1.00
2022-10-12T13:15:25.502Z,1.33
2022-10-12T13:18:01.217Z,1.10
2022-10-12T13:20:32.700Z,1.45
2022-10-12T13:23:03.426Z,1.13
2022-10-12T13:25:34.869Z,0.93
2022-10-12T13:28:07.670Z,1.17
2022-10-12T13:30:53.436Z,1.10
2022-10-12T13:33:42.827Z,1.05
2022-10-12T13:36:26.197Z,1.40
2022-10-12T13:39:07.508Z,1.55
2022-10-12T13:41:35.427Z,1.05
2022-10-12T13:44:06.673Z,1.65
2022-10-12T13:46:44.385Z,1.30
2022-10-12T13:49:27.363Z,1.58
2022-10-12T13:51:55.907Z,1.05
2022-10-12T13:54:26.015Z,1.10
2022-10-12T13:57:00.884Z,1.15
2022-10-12T13:59:32.572Z,0.93
2022-10-12T14:02:01.633Z,1.35
2022-10-12T14:04:31.122Z,1.98
2022-10-12T14:07:07.477Z,1.13
2022-10-12T14:09:41.965Z,1.60
2022-10-12T14:12:10.498Z,1.67
2022-10-12T14:14:40.741Z,1.08
2022-10-12T14:17:12.614Z,1.48
2022-10-12T14:19:46.796Z,1.23
2022-10-12T14:22:31.150Z,1.92
2022-10-12T14:25:20.312Z,1.83
2022-10-12T14:27:52.812Z,1.33
2022-10-12T14:30:23.661Z,1.13
2022-10-12T14:32:54.012Z,1.73
2022-10-12T14:35:29.192Z,1.20
2022-10-12T14:37:56.731Z,1.75
2022-10-12T14:40:33.745Z,2.00
2022-10-12T14:43:04.384Z,1.27
2022-10-12T14:45:32.964Z,1.05
2022-10-12T14:48:01.529Z,1.10
2022-10-12T14:50:30.469Z,1.70
2022-10-12T14:53:01.905Z,1.27
2022-10-12T14:55:32.121Z,1.52
2022-10-12T14:57:59.769Z,1.00
2022-10-12T15:00:32.694Z,1.30
2022-10-12T15:03:00.051Z,0.75
2022-10-12T15:05:34.273Z,1.20
2022-10-12T15:08:07.269Z,1.17
2022-10-12T15:10:34.678Z,1.38
2022-10-12T15:13:01.531Z,1.17
2022-10-12T15:15:42.687Z,2.35
2022-10-12T15:18:09.936Z,1.10
2022-10-12T15:20:37.075Z,1.23
2022-10-12T15:23:05.015Z,0.77
2022-10-12T15:25:35.009Z,0.55
2022-10-12T15:28:03.142Z,1.00
2022-10-12T15:30:30.619Z,1.05
2022-10-12T15:32:57.436Z,1.10
2022-10-12T15:35:26.948Z,1.30
2022-10-12T15:37:56.308Z,0.90
2022-10-12T15:40:23.866Z,1.10
2022-10-12T15:42:50.759Z,1.30
2022-10-12T15:45:35.655Z,1.25
2022-10-12T15:50:51.092Z,1.75
2022-10-12T15:53:21.251Z,1.75
2022-10-12T15:55:48.513Z,0.80
2022-10-12T15:58:15.750Z,1.08
2022-10-12T16:00:42.815Z,1.10
2022-10-12T16:03:24.257Z,1.13
2022-10-12T16:05:52.287Z,1.08
2022-10-12T16:08:19.195Z,1.00
2022-10-12T16:10:47.784Z,0.60
2022-10-12T16:13:15.887Z,0.90
2022-10-12T16:15:43.447Z,0.60
2022-10-12T16:18:11.714Z,0.73
2022-10-12T16:20:39.269Z,0.82
2022-10-12T16:23:09.923Z,0.60
2022-10-12T16:25:36.808Z,0.93
2022-10-12T16:28:03.717Z,0.77
2022-10-12T16:30:31.274Z,0.75
2022-10-12T16:32:58.095Z,1.00
2022-10-12T16:35:25.164Z,1.45
2022-10-12T16:37:52.060Z,1.30
2022-10-12T16:40:19.099Z,1.48
2022-10-12T16:42:53.049Z,1.45
2022-10-12T16:45:21.345Z,1.50
2022-10-12T16:47:50.459Z,1.20
2022-10-12T16:50:18.841Z,1.58
2022-10-12T16:52:45.939Z,0.75
2022-10-12T16:55:12.988Z,1.45
2022-10-12T16:57:40.555Z,1.80
2022-10-12T17:00:09.203Z,1.92
2022-10-12T17:02:36.223Z,1.58
2022-10-12T17:05:04.225Z,1.50
2022-10-12T17:07:31.648Z,1.70
2022-10-12T17:09:58.737Z,1.67
2022-10-12T17:12:26.163Z,2.05
2022-10-12T17:14:53.345Z,1.50
2022-10-12T17:17:20.729Z,1.58
2022-10-12T17:19:47.548Z,1.42
2022-10-12T17:22:15.239Z,1.77
2022-10-12T17:24:43.043Z,1.85
2022-10-12T17:27:12.220Z,1.50
2022-10-12T17:29:41.821Z,2.22
2022-10-12T17:32:12.093Z,1.55
2022-10-12T17:34:41.779Z,1.58
2022-10-12T17:37:11.323Z,2.10
2022-10-12T17:39:42.528Z,1.90
2022-10-12T17:42:09.655Z,1.38
2022-10-12T17:44:36.460Z,1.23
2022-10-12T17:47:03.837Z,1.45
2022-10-12T17:49:31.096Z,1.63
2022-10-12T17:51:58.283Z,1.60
2022-10-12T17:54:26.964Z,1.70
2022-10-12T17:56:55.630Z,1.42
2022-10-12T17:59:22.923Z,1.73
2022-10-12T19:24:17.237Z,1.27
2022-10-12T19:26:44.380Z,1.92
2022-10-12T19:29:11.536Z,1.88
2022-10-12T19:31:42.190Z,2.20
2022-10-12T19:34:11.684Z,1.83
2022-10-12T19:36:39.149Z,2.47
2022-10-12T19:39:09.796Z,1.70
2022-10-12T19:41:36.999Z,3.53
2022-10-12T19:44:04.133Z,2.25
2022-10-12T19:46:31.763Z,1.83
2022-10-12T19:48:59.825Z,1.88
2022-10-12T19:51:28.260Z,1.77
2022-10-12T19:53:57.237Z,2.08
2022-10-12T19:56:26.425Z,2.75
2022-10-12T19:58:57.963Z,1.70
2022-10-12T20:01:34.938Z,2.03
2022-10-12T20:04:06.955Z,2.27
2022-10-12T20:06:33.862Z,2.78
2022-10-12T20:09:03.846Z,2.15
2022-10-12T20:11:31.260Z,2.17
2022-10-12T20:13:58.415Z,2.08
2022-10-12T20:16:25.353Z,1.70
2022-10-12T20:18:52.540Z,2.10
2022-10-12T20:21:22.278Z,1.90
2022-10-12T20:23:50.029Z,1.75
2022-10-12T20:26:20.568Z,1.67
2022-10-12T20:28:47.849Z,1.90
2022-10-12T20:31:14.719Z,2.17
2022-10-12T20:33:41.669Z,2.63
2022-10-12T20:36:18.503Z,2.50
2022-10-12T20:38:45.369Z,3.03
2022-10-12T20:41:14.131Z,2.05
2022-10-12T20:43:41.843Z,2.78
2022-10-12T20:46:13.141Z,1.80
2022-10-12T20:48:40.784Z,2.15
2022-10-12T20:51:09.584Z,2.20
2022-10-12T20:53:37.843Z,2.33
2022-10-12T20:56:06.178Z,1.98
2022-10-12T20:58:33.419Z,2.58
2022-10-12T21:01:12.017Z,2.88
2022-10-12T21:03:39.571Z,2.80
2022-10-12T21:06:08.673Z,2.28
2022-10-12T21:08:36.564Z,2.63
2022-10-12T21:11:05.963Z,2.70
2022-10-12T21:13:34.634Z,2.95
2022-10-12T21:16:01.695Z,2.90
2022-10-12T21:18:34.027Z,2.80
2022-10-12T21:21:11.593Z,2.80
2022-10-12T21:23:42.544Z,3.20
2022-10-12T21:26:11.988Z,2.53
2022-10-12T21:28:39.235Z,2.80
2022-10-12T21:31:06.373Z,2.50
2022-10-12T21:33:35.237Z,2.65
2022-10-12T21:36:17.514Z,3.13
2022-10-12T21:38:44.509Z,2.97
2022-10-12T21:41:13.556Z,4.00
2022-10-12T21:43:42.230Z,3.15
2022-10-12T21:46:12.475Z,2.55
2022-10-12T21:48:39.687Z,3.30
2022-10-12T21:51:07.146Z,2.60
2022-10-12T21:53:35.010Z,2.10
2022-10-12T21:56:17.199Z,2.55
2022-10-12T21:58:44.856Z,2.60
2022-10-12T22:01:20.729Z,2.55
2022-10-12T22:03:49.824Z,2.70
2022-10-12T22:06:19.017Z,3.35
2022-10-12T22:08:51.233Z,2.88
2022-10-12T22:11:20.034Z,2.47
2022-10-12T22:13:47.220Z,3.67
2022-10-12T22:16:16.555Z,2.80
2022-10-12T22:18:43.889Z,3.20
2022-10-12T22:21:19.801Z,3.25
2022-10-12T22:23:46.696Z,3.00
2022-10-12T22:26:16.959Z,4.15
2022-10-12T22:28:43.925Z,4.03
2022-10-12T22:31:13.852Z,4.38
2022-10-12T22:33:41.110Z,4.18
2022-10-12T22:36:08.704Z,4.00
2022-10-12T22:38:36.026Z,3.92
2022-10-12T22:41:17.482Z,3.75
2022-10-12T22:43:44.331Z,3.55
2022-10-12T22:46:11.756Z,4.32
2022-10-12T22:48:38.699Z,3.90
2022-10-12T22:51:06.569Z,3.53
2022-10-12T22:53:34.755Z,3.75
2022-10-12T22:56:04.456Z,3.75
2022-10-12T22:58:31.930Z,3.28
2022-10-12T23:01:10.647Z,3.78
2022-10-12T23:03:38.269Z,3.38
2022-10-12T23:06:06.506Z,3.38
2022-10-12T23:08:33.620Z,4.10
2022-10-12T23:11:05.596Z,4.05
2022-10-12T23:13:33.822Z,3.75
2022-10-12T23:16:05.516Z,4.28
2022-10-12T23:18:34.051Z,3.70
2022-10-12T23:21:08.158Z,4.40
2022-10-12T23:23:35.987Z,4.30
2022-10-12T23:26:05.654Z,3.97
2022-10-12T23:28:33.091Z,3.45
2022-10-12T23:31:02.028Z,3.75
2022-10-12T23:33:28.874Z,3.92
2022-10-12T23:36:00.835Z,2.97
2022-10-12T23:38:32.895Z,3.72
2022-10-12T23:41:00.151Z,3.58
2022-10-12T23:43:27.468Z,4.10
2022-10-12T23:45:55.245Z,3.92
2022-10-12T23:48:23.089Z,3.35
2022-10-12T23:50:51.827Z,3.58
2022-10-12T23:53:20.844Z,3.55
2022-10-12T23:55:48.360Z,4.45
2022-10-12T23:58:15.429Z,4.60
